Station Historical Data
Daily Summary for July 18, 2012 Units:  Both    English   Metric
« Previous Day
Next Day »
Daily Weekly Monthly Yearly Custom
  High: Low: Average:
Temperature: 91.5 °F /  33.1 °C 71.3 °F /  21.8 °C 77.5 °F /  25.3 °C
Dew Point: 78.0 °F /  25.6 °C 68.9 °F /  20.5 °C 72.1 °F /  22.3 °C
Humidity: 93% 59% 85%
Wind Speed: 11.0mph /  17.7km/h - 2.3mph /  3.7km/h
Wind Gust: 13.0mph /  20.9km/h - -
Wind- - SSW
Pressure: 30.00 in /  1015.8 hPa 29.88 in /  1011.7 hPa -
Precipitation: 1.46 in /  37.08 mm    
Historical Graphs
 
 
Tabular Data for July 18, 2012
Time Temperature Dew Point Pressure Wind Wind Speed Wind Gust Humidity Rainfall Rate (Hourly) Conditions
00:00 72.6 °F /  22.6 °C 70.2 °F /  21.2 °C 29.92in /  1013.1hPa NW 1.0mph /  1.6km/h 1.0mph /  1.6km/h 92% 0.00in /  0mm
00:05 72.7 °F /  22.6 °C 70.2 °F /  21.2 °C 29.92in /  1013.1hPa Calm   1.0mph /  1.6km/h 92% 0.00in /  0mm
00:10 72.8 °F /  22.7 °C 70.3 °F /  21.3 °C 29.92in /  1013.1hPa Calm     92% 0.00in /  0mm
00:15 72.9 °F /  22.7 °C 70.4 °F /  21.3 °C 29.92in /  1013.1hPa Calm   1.0mph /  1.6km/h 92% 0.00in /  0mm
00:20 73.0 °F /  22.8 °C 70.5 °F /  21.4 °C 29.93in /  1013.4hPa Calm   1.0mph /  1.6km/h 92% 0.00in /  0mm
00:25 73.3 °F /  22.9 °C 70.5 °F /  21.4 °C 29.93in /  1013.4hPa Calm     91% 0.00in /  0mm
00:30 73.3 °F /  22.9 °C 70.5 °F /  21.4 °C 29.93in /  1013.4hPa Calm   1.0mph /  1.6km/h 91% 0.00in /  0mm
00:35 73.3 °F /  22.9 °C 70.5 °F /  21.4 °C 29.93in /  1013.4hPa Calm   1.0mph /  1.6km/h 91% 0.00in /  0mm
00:40 73.2 °F /  22.9 °C 70.4 °F /  21.3 °C 29.93in /  1013.4hPa SSE 1.0mph /  1.6km/h 1.0mph /  1.6km/h 91% 0.00in /  0mm
00:45 73.1 °F /  22.8 °C 70.3 °F /  21.3 °C 29.93in /  1013.4hPa Calm     91% 0.00in /  0mm
00:50 72.9 °F /  22.7 °C 70.4 °F /  21.3 °C 29.93in /  1013.4hPa Calm   1.0mph /  1.6km/h 92% 0.00in /  0mm
00:55 72.8 °F /  22.7 °C 70.3 °F /  21.3 °C 29.92in /  1013.1hPa Calm     92% 0.00in /  0mm
01:00 72.6 °F /  22.6 °C 70.2 °F /  21.2 °C 29.93in /  1013.4hPa Calm     92% 0.00in /  0mm
01:05 72.6 °F /  22.6 °C 70.2 °F /  21.2 °C 29.92in /  1013.1hPa Calm     92% 0.00in /  0mm
01:11 72.6 °F /  22.6 °C 70.2 °F /  21.2 °C 29.92in /  1013.1hPa Calm     92% 0.00in /  0mm
01:16 72.4 °F /  22.4 °C 69.9 °F /  21.1 °C 29.93in /  1013.4hPa Calm   1.0mph /  1.6km/h 92% 0.00in /  0mm
01:21 72.2 °F /  22.3 °C 69.8 °F /  21 °C 29.92in /  1013.1hPa Calm     92% 0.00in /  0mm
01:26 72.1 °F /  22.3 °C 69.7 °F /  20.9 °C 29.92in /  1013.1hPa Calm     92% 0.00in /  0mm
01:31 72.2 °F /  22.3 °C 69.8 °F /  21 °C 29.92in /  1013.1hPa ESE 2.0mph /  3.2km/h 3.0mph /  4.8km/h 92% 0.00in /  0mm
01:36 72.0 °F /  22.2 °C 69.6 °F /  20.9 °C 29.92in /  1013.1hPa Calm   1.0mph /  1.6km/h 92% 0.00in /  0mm
01:41 71.9 °F /  22.2 °C 69.4 °F /  20.8 °C 29.92in /  1013.1hPa SE 1.0mph /  1.6km/h 1.0mph /  1.6km/h 92% 0.00in /  0mm
01:46 72.1 °F /  22.3 °C 69.7 °F /  20.9 °C 29.93in /  1013.4hPa ESE 2.0mph /  3.2km/h 2.0mph /  3.2km/h 92% 0.00in /  0mm
01:51 72.2 °F /  22.3 °C 69.8 °F /  21 °C 29.93in /  1013.4hPa Calm   2.0mph /  3.2km/h 92% 0.00in /  0mm
01:56 72.1 °F /  22.3 °C 69.7 °F /  20.9 °C 29.93in /  1013.4hPa East 1.0mph /  1.6km/h 1.0mph /  1.6km/h 92% 0.00in /  0mm
02:01 71.9 °F /  22.2 °C 69.4 °F /  20.8 °C 29.92in /  1013.1hPa Calm     92% 0.00in /  0mm
02:06 71.8 °F /  22.1 °C 69.3 °F /  20.7 °C 29.92in /  1013.1hPa Calm     92% 0.00in /  0mm
02:11 71.8 °F /  22.1 °C 69.3 °F /  20.7 °C 29.92in /  1013.1hPa Calm     92% 0.00in /  0mm
02:16 71.9 °F /  22.2 °C 69.4 °F /  20.8 °C 29.92in /  1013.1hPa Calm     92% 0.00in /  0mm
02:21 71.9 °F /  22.2 °C 69.4 °F /  20.8 °C 29.92in /  1013.1hPa SSE 1.0mph /  1.6km/h 1.0mph /  1.6km/h 92% 0.00in /  0mm
02:26 71.9 °F /  22.2 °C 69.4 °F /  20.8 °C 29.92in /  1013.1hPa SE 3.0mph /  4.8km/h 4.0mph /  6.4km/h 92% 0.00in /  0mm
02:31 72.0 °F /  22.2 °C 69.6 °F /  20.9 °C 29.92in /  1013.1hPa Calm   2.0mph /  3.2km/h 92% 0.00in /  0mm
02:36 72.2 °F /  22.3 °C 69.8 °F /  21 °C 29.93in /  1013.4hPa Calm   1.0mph /  1.6km/h 92% 0.00in /  0mm
02:41 72.2 °F /  22.3 °C 69.8 °F /  21 °C 29.92in /  1013.1hPa SSE 1.0mph /  1.6km/h 1.0mph /  1.6km/h 92% 0.00in /  0mm
02:46 72.2 °F /  22.3 °C 69.8 °F /  21 °C 29.92in /  1013.1hPa SSE 1.0mph /  1.6km/h 1.0mph /  1.6km/h 92% 0.00in /  0mm
02:51 72.3 °F /  22.4 °C 69.8 °F /  21 °C 29.92in /  1013.1hPa SE 1.0mph /  1.6km/h 2.0mph /  3.2km/h 92% 0.00in /  0mm
02:57 72.2 °F /  22.3 °C 69.8 °F /  21 °C 29.92in /  1013.1hPa Calm   1.0mph /  1.6km/h 92% 0.00in /  0mm
03:02 72.2 °F /  22.3 °C 69.8 °F /  21 °C 29.92in /  1013.1hPa SSW 1.0mph /  1.6km/h 1.0mph /  1.6km/h 92% 0.00in /  0mm
03:07 72.1 °F /  22.3 °C 69.7 °F /  20.9 °C 29.92in /  1013.1hPa Calm   1.0mph /  1.6km/h 92% 0.00in /  0mm
03:12 72.0 °F /  22.2 °C 69.6 °F /  20.9 °C 29.92in /  1013.1hPa Calm     92% 0.00in /  0mm
03:17 71.9 °F /  22.2 °C 69.4 °F /  20.8 °C 29.92in /  1013.1hPa Calm     92% 0.00in /  0mm
03:22 71.9 °F /  22.2 °C 69.4 °F /  20.8 °C 29.92in /  1013.1hPa Calm     92% 0.00in /  0mm
03:27 72.0 °F /  22.2 °C 69.6 °F /  20.9 °C 29.92in /  1013.1hPa Calm     92% 0.00in /  0mm
03:32 72.2 °F /  22.3 °C 69.4 °F /  20.8 °C 29.92in /  1013.1hPa Calm     91% 0.00in /  0mm
03:38 72.2 °F /  22.3 °C 69.4 °F /  20.8 °C 29.92in /  1013.1hPa Calm     91% 0.00in /  0mm
03:43 72.1 °F /  22.3 °C 69.7 °F /  20.9 °C 29.92in /  1013.1hPa Calm     92% 0.00in /  0mm
03:48 72.0 °F /  22.2 °C 69.6 °F /  20.9 °C 29.92in /  1013.1hPa Calm     92% 0.00in /  0mm
03:53 71.8 °F /  22.1 °C 69.3 °F /  20.7 °C 29.92in /  1013.1hPa Calm     92% 0.00in /  0mm
03:58 71.8 °F /  22.1 °C 69.3 °F /  20.7 °C 29.92in /  1013.1hPa Calm     92% 0.00in /  0mm
04:03 71.8 °F /  22.1 °C 69.3 °F /  20.7 °C 29.92in /  1013.1hPa Calm     92% 0.00in /  0mm
04:08 71.9 °F /  22.2 °C 69.4 °F /  20.8 °C 29.92in /  1013.1hPa Calm     92% 0.00in /  0mm
04:13 71.9 °F /  22.2 °C 69.4 °F /  20.8 °C 29.92in /  1013.1hPa Calm     92% 0.00in /  0mm
04:18 72.0 °F /  22.2 °C 69.6 °F /  20.9 °C 29.92in /  1013.1hPa Calm     92% 0.00in /  0mm
04:23 72.0 °F /  22.2 °C 69.2 °F /  20.7 °C 29.92in /  1013.1hPa Calm     91% 0.00in /  0mm
04:28 71.7 °F /  22.1 °C 69.3 °F /  20.7 °C 29.92in /  1013.1hPa Calm     92% 0.00in /  0mm
04:33 71.7 °F /  22.1 °C 69.3 °F /  20.7 °C 29.92in /  1013.1hPa Calm     92% 0.00in /  0mm
04:38 71.7 °F /  22.1 °C 69.3 °F /  20.7 °C 29.93in /  1013.4hPa Calm     92% 0.00in /  0mm
04:43 71.8 °F /  22.1 °C 69.3 °F /  20.7 °C 29.92in /  1013.1hPa Calm     92% 0.00in /  0mm
04:48 71.8 °F /  22.1 °C 69.3 °F /  20.7 °C 29.93in /  1013.4hPa Calm     92% 0.00in /  0mm
04:53 71.8 °F /  22.1 °C 69.3 °F /  20.7 °C 29.93in /  1013.4hPa Calm     92% 0.00in /  0mm
04:58 71.8 °F /  22.1 °C 69.3 °F /  20.7 °C 29.93in /  1013.4hPa Calm     92% 0.00in /  0mm
05:03 72.0 °F /  22.2 °C 69.6 °F /  20.9 °C 29.94in /  1013.8hPa SE 1.0mph /  1.6km/h 1.0mph /  1.6km/h 92% 0.00in /  0mm
05:08 72.2 °F /  22.3 °C 69.8 °F /  21 °C 29.94in /  1013.8hPa SE 3.0mph /  4.8km/h 3.0mph /  4.8km/h 92% 0.00in /  0mm
05:13 72.4 °F /  22.4 °C 69.9 °F /  21.1 °C 29.94in /  1013.8hPa SE 2.0mph /  3.2km/h 4.0mph /  6.4km/h 92% 0.00in /  0mm
05:18 72.5 °F /  22.5 °C 70.1 °F /  21.2 °C 29.94in /  1013.8hPa SE 3.0mph /  4.8km/h 4.0mph /  6.4km/h 92% 0.00in /  0mm
05:23 72.4 °F /  22.4 °C 69.9 °F /  21.1 °C 29.94in /  1013.8hPa SE 1.0mph /  1.6km/h 1.0mph /  1.6km/h 92% 0.00in /  0mm
05:28 72.4 °F /  22.4 °C 69.9 °F /  21.1 °C 29.95in /  1014.1hPa Calm   1.0mph /  1.6km/h 92% 0.00in /  0mm
05:33 72.3 °F /  22.4 °C 69.8 °F /  21 °C 29.95in /  1014.1hPa SE 1.0mph /  1.6km/h 1.0mph /  1.6km/h 92% 0.00in /  0mm
05:38 72.2 °F /  22.3 °C 69.8 °F /  21 °C 29.95in /  1014.1hPa SE 1.0mph /  1.6km/h 1.0mph /  1.6km/h 92% 0.00in /  0mm
05:43 72.0 °F /  22.2 °C 69.6 °F /  20.9 °C 29.95in /  1014.1hPa Calm   1.0mph /  1.6km/h 92% 0.00in /  0mm
05:48 71.8 °F /  22.1 °C 69.3 °F /  20.7 °C 29.94in /  1013.8hPa Calm     92% 0.00in /  0mm
05:53 71.9 °F /  22.2 °C 69.4 °F /  20.8 °C 29.94in /  1013.8hPa Calm     92% 0.00in /  0mm
05:58 71.9 °F /  22.2 °C 69.4 °F /  20.8 °C 29.94in /  1013.8hPa ESE 3.0mph /  4.8km/h 3.0mph /  4.8km/h 92% 0.00in /  0mm
06:03 72.0 °F /  22.2 °C 69.6 °F /  20.9 °C 29.95in /  1014.1hPa ESE 1.0mph /  1.6km/h 2.0mph /  3.2km/h 92% 0.00in /  0mm
06:08 71.9 °F /  22.2 °C 69.4 °F /  20.8 °C 29.95in /  1014.1hPa ESE 2.0mph /  3.2km/h 3.0mph /  4.8km/h 92% 0.00in /  0mm
06:13 71.9 °F /  22.2 °C 69.4 °F /  20.8 °C 29.95in /  1014.1hPa SE 2.0mph /  3.2km/h 3.0mph /  4.8km/h 92% 0.00in /  0mm
06:18 71.8 °F /  22.1 °C 69.7 °F /  20.9 °C 29.95in /  1014.1hPa ESE 3.0mph /  4.8km/h 3.0mph /  4.8km/h 93% 0.00in /  0mm
06:23 71.8 °F /  22.1 °C 69.3 °F /  20.7 °C 29.96in /  1014.4hPa ESE 3.0mph /  4.8km/h 3.0mph /  4.8km/h 92% 0.00in /  0mm
06:28 71.8 °F /  22.1 °C 69.3 °F /  20.7 °C 29.96in /  1014.4hPa ESE 3.0mph /  4.8km/h 5.0mph /  8km/h 92% 0.00in /  0mm
06:33 71.9 °F /  22.2 °C 69.4 °F /  20.8 °C 29.96in /  1014.4hPa SE 3.0mph /  4.8km/h 5.0mph /  8km/h 92% 0.00in /  0mm
06:38 72.1 °F /  22.3 °C 69.7 °F /  20.9 °C 29.96in /  1014.4hPa SE 3.0mph /  4.8km/h 6.0mph /  9.7km/h 92% 0.00in /  0mm
06:44 72.3 °F /  22.4 °C 69.8 °F /  21 °C 29.96in /  1014.4hPa SE 2.0mph /  3.2km/h 6.0mph /  9.7km/h 92% 0.00in /  0mm
06:49 72.5 °F /  22.5 °C 70.1 °F /  21.2 °C 29.96in /  1014.4hPa SE 4.0mph /  6.4km/h 6.0mph /  9.7km/h 92% 0.00in /  0mm
06:54 72.6 °F /  22.6 °C 70.2 °F /  21.2 °C 29.96in /  1014.4hPa South 3.0mph /  4.8km/h 6.0mph /  9.7km/h 92% 0.00in /  0mm
06:59 72.5 °F /  22.5 °C 70.1 °F /  21.2 °C 29.96in /  1014.4hPa SSW 2.0mph /  3.2km/h 5.0mph /  8km/h 92% 0.00in /  0mm
07:04 72.6 °F /  22.6 °C 70.2 °F /  21.2 °C 29.97in /  1014.8hPa South 1.0mph /  1.6km/h 2.0mph /  3.2km/h 92% 0.00in /  0mm
07:09 72.7 °F /  22.6 °C 70.2 °F /  21.2 °C 29.97in /  1014.8hPa SSE 2.0mph /  3.2km/h 4.0mph /  6.4km/h 92% 0.00in /  0mm
07:14 72.8 °F /  22.7 °C 70.3 °F /  21.3 °C 29.97in /  1014.8hPa SSW 2.0mph /  3.2km/h 5.0mph /  8km/h 92% 0.00in /  0mm
07:19 72.9 °F /  22.7 °C 70.4 °F /  21.3 °C 29.96in /  1014.4hPa SE 2.0mph /  3.2km/h 2.0mph /  3.2km/h 92% 0.00in /  0mm
07:24 73.1 °F /  22.8 °C 70.6 °F /  21.4 °C 29.97in /  1014.8hPa SSE 3.0mph /  4.8km/h 4.0mph /  6.4km/h 92% 0.00in /  0mm
07:29 73.1 °F /  22.8 °C 70.6 °F /  21.4 °C 29.97in /  1014.8hPa SE 2.0mph /  3.2km/h 3.0mph /  4.8km/h 92% 0.00in /  0mm
07:34 73.3 °F /  22.9 °C 70.8 °F /  21.6 °C 29.97in /  1014.8hPa SSE 3.0mph /  4.8km/h 4.0mph /  6.4km/h 92% 0.00in /  0mm
07:39 73.4 °F /  23 °C 70.9 °F /  21.6 °C 29.97in /  1014.8hPa SE 3.0mph /  4.8km/h 4.0mph /  6.4km/h 92% 0.00in /  0mm
07:44 73.6 °F /  23.1 °C 71.1 °F /  21.7 °C 29.98in /  1015.1hPa SE 3.0mph /  4.8km/h 4.0mph /  6.4km/h 92% 0.00in /  0mm
07:49 73.7 °F /  23.2 °C 71.2 °F /  21.8 °C 29.98in /  1015.1hPa SE 4.0mph /  6.4km/h 4.0mph /  6.4km/h 92% 0.00in /  0mm
07:54 73.8 °F /  23.2 °C 71.3 °F /  21.8 °C 29.98in /  1015.1hPa SE 2.0mph /  3.2km/h 4.0mph /  6.4km/h 92% 0.00in /  0mm
07:59 73.9 °F /  23.3 °C 71.4 °F /  21.9 °C 29.98in /  1015.1hPa SSE 4.0mph /  6.4km/h 4.0mph /  6.4km/h 92% 0.00in /  0mm
08:04 74.3 °F /  23.5 °C 71.8 °F /  22.1 °C 29.98in /  1015.1hPa SSE 3.0mph /  4.8km/h 4.0mph /  6.4km/h 92% 0.00in /  0mm
08:09 74.5 °F /  23.6 °C 72.0 °F /  22.2 °C 29.98in /  1015.1hPa South 3.0mph /  4.8km/h 5.0mph /  8km/h 92% 0.00in /  0mm
08:14 74.7 °F /  23.7 °C 72.2 °F /  22.3 °C 29.99in /  1015.5hPa SSE 4.0mph /  6.4km/h 4.0mph /  6.4km/h 92% 0.00in /  0mm
08:19 74.9 °F /  23.8 °C 72.4 °F /  22.4 °C 29.99in /  1015.5hPa SSW 1.0mph /  1.6km/h 5.0mph /  8km/h 92% 0.00in /  0mm
08:24 74.9 °F /  23.8 °C 72.4 °F /  22.4 °C 29.99in /  1015.5hPa South 4.0mph /  6.4km/h 5.0mph /  8km/h 92% 0.00in /  0mm
08:29 75.0 °F /  23.9 °C 72.5 °F /  22.5 °C 29.99in /  1015.5hPa South 3.0mph /  4.8km/h 6.0mph /  9.7km/h 92% 0.00in /  0mm
08:34 75.5 °F /  24.2 °C 73.0 °F /  22.8 °C 29.99in /  1015.5hPa South 5.0mph /  8km/h 5.0mph /  8km/h 92% 0.00in /  0mm
08:39 75.7 °F /  24.3 °C 73.2 °F /  22.9 °C 29.99in /  1015.5hPa SSE 2.0mph /  3.2km/h 3.0mph /  4.8km/h 92% 0.00in /  0mm
08:44 76.0 °F /  24.4 °C 73.5 °F /  23.1 °C 29.99in /  1015.5hPa SE 3.0mph /  4.8km/h 4.0mph /  6.4km/h 92% 0.00in /  0mm
08:49 76.2 °F /  24.6 °C 73.7 °F /  23.2 °C 29.99in /  1015.5hPa South 3.0mph /  4.8km/h 5.0mph /  8km/h 92% 0.00in /  0mm
08:54 76.2 °F /  24.6 °C 73.4 °F /  23 °C 29.99in /  1015.5hPa SE 3.0mph /  4.8km/h 4.0mph /  6.4km/h 91% 0.00in /  0mm
08:59 76.4 °F /  24.7 °C 73.6 °F /  23.1 °C 29.99in /  1015.5hPa South 2.0mph /  3.2km/h 4.0mph /  6.4km/h 91% 0.00in /  0mm
09:04 76.7 °F /  24.8 °C 73.9 °F /  23.3 °C 29.99in /  1015.5hPa WSW 1.0mph /  1.6km/h 3.0mph /  4.8km/h 91% 0.00in /  0mm
09:09 77.3 °F /  25.2 °C 74.5 °F /  23.6 °C 29.99in /  1015.5hPa South 3.0mph /  4.8km/h 4.0mph /  6.4km/h 91% 0.00in /  0mm
09:14 77.9 °F /  25.5 °C 74.7 °F /  23.7 °C 29.99in /  1015.5hPa SW 6.0mph /  9.7km/h 6.0mph /  9.7km/h 90% 0.00in /  0mm
09:19 78.0 °F /  25.6 °C 74.8 °F /  23.8 °C 29.99in /  1015.5hPa SW 4.0mph /  6.4km/h 7.0mph /  11.3km/h 90% 0.00in /  0mm
09:24 78.6 °F /  25.9 °C 75.1 °F /  23.9 °C 29.99in /  1015.5hPa South 3.0mph /  4.8km/h 6.0mph /  9.7km/h 89% 0.00in /  0mm
09:29 78.8 °F /  26 °C 74.9 °F /  23.8 °C 29.99in /  1015.5hPa SSW 5.0mph /  8km/h 7.0mph /  11.3km/h 88% 0.00in /  0mm
09:34 79.3 °F /  26.3 °C 75.8 °F /  24.3 °C 29.99in /  1015.5hPa SW 2.0mph /  3.2km/h 5.0mph /  8km/h 89% 0.00in /  0mm
09:39 79.6 °F /  26.4 °C 75.7 °F /  24.3 °C 29.99in /  1015.5hPa South 4.0mph /  6.4km/h 6.0mph /  9.7km/h 88% 0.00in /  0mm
09:44 79.9 °F /  26.6 °C 75.7 °F /  24.3 °C 30.00in /  1015.8hPa SSW 3.0mph /  4.8km/h 5.0mph /  8km/h 87% 0.00in /  0mm
09:49 80.2 °F /  26.8 °C 75.6 °F /  24.2 °C 29.99in /  1015.5hPa SSW 4.0mph /  6.4km/h 7.0mph /  11.3km/h 86% 0.00in /  0mm
09:55 80.4 °F /  26.9 °C 75.8 °F /  24.3 °C 30.00in /  1015.8hPa SSW 3.0mph /  4.8km/h 6.0mph /  9.7km/h 86% 0.00in /  0mm
09:59 80.5 °F /  26.9 °C 75.9 °F /  24.4 °C 30.00in /  1015.8hPa SW 3.0mph /  4.8km/h 6.0mph /  9.7km/h 86% 0.00in /  0mm
10:05 80.4 °F /  26.9 °C 75.5 °F /  24.2 °C 30.00in /  1015.8hPa SSW 2.0mph /  3.2km/h 7.0mph /  11.3km/h 85% 0.00in /  0mm
10:10 80.8 °F /  27.1 °C 75.9 °F /  24.4 °C 30.00in /  1015.8hPa Calm   6.0mph /  9.7km/h 85% 0.00in /  0mm
10:15 81.3 °F /  27.4 °C 76.0 °F /  24.4 °C 30.00in /  1015.8hPa WSW 1.0mph /  1.6km/h 6.0mph /  9.7km/h 84% 0.00in /  0mm
10:20 81.5 °F /  27.5 °C 76.2 °F /  24.6 °C 30.00in /  1015.8hPa WSW 4.0mph /  6.4km/h 4.0mph /  6.4km/h 84% 0.00in /  0mm
10:25 81.5 °F /  27.5 °C 75.8 °F /  24.3 °C 30.00in /  1015.8hPa WSW 5.0mph /  8km/h 7.0mph /  11.3km/h 83% 0.00in /  0mm
10:30 81.3 °F /  27.4 °C 75.7 °F /  24.3 °C 30.00in /  1015.8hPa West 2.0mph /  3.2km/h 5.0mph /  8km/h 83% 0.00in /  0mm
10:35 81.4 °F /  27.4 °C 76.1 °F /  24.5 °C 30.00in /  1015.8hPa SW 2.0mph /  3.2km/h 5.0mph /  8km/h 84% 0.00in /  0mm
10:40 81.7 °F /  27.6 °C 76.0 °F /  24.4 °C 30.00in /  1015.8hPa WSW 1.0mph /  1.6km/h 5.0mph /  8km/h 83% 0.00in /  0mm
10:45 81.9 °F /  27.7 °C 76.2 °F /  24.6 °C 30.00in /  1015.8hPa SSW 2.0mph /  3.2km/h 6.0mph /  9.7km/h 83% 0.00in /  0mm
10:50 81.9 °F /  27.7 °C 75.9 °F /  24.4 °C 29.99in /  1015.5hPa SSW 3.0mph /  4.8km/h 6.0mph /  9.7km/h 82% 0.00in /  0mm
10:55 82.6 °F /  28.1 °C 76.9 °F /  24.9 °C 29.99in /  1015.5hPa SSW 5.0mph /  8km/h 6.0mph /  9.7km/h 83% 0.00in /  0mm
11:00 83.2 °F /  28.4 °C 76.4 °F /  24.7 °C 29.99in /  1015.5hPa SSW 3.0mph /  4.8km/h 5.0mph /  8km/h 80% 0.00in /  0mm
11:05 83.1 °F /  28.4 °C 76.7 °F /  24.8 °C 29.99in /  1015.5hPa SW 5.0mph /  8km/h 5.0mph /  8km/h 81% 0.00in /  0mm
11:10 83.3 °F /  28.5 °C 76.5 °F /  24.7 °C 29.99in /  1015.5hPa SSW 5.0mph /  8km/h 6.0mph /  9.7km/h 80% 0.00in /  0mm
11:15 83.3 °F /  28.5 °C 76.1 °F /  24.5 °C 29.99in /  1015.5hPa SW 5.0mph /  8km/h 5.0mph /  8km/h 79% 0.00in /  0mm
11:20 83.5 °F /  28.6 °C 77.4 °F /  25.2 °C 29.99in /  1015.5hPa SW 4.0mph /  6.4km/h 6.0mph /  9.7km/h 82% 0.00in /  0mm
11:25 84.0 °F /  28.9 °C 77.2 °F /  25.1 °C 29.99in /  1015.5hPa SW 3.0mph /  4.8km/h 6.0mph /  9.7km/h 80% 0.00in /  0mm
11:30 84.3 °F /  29.1 °C 77.1 °F /  25.1 °C 29.99in /  1015.5hPa WSW 6.0mph /  9.7km/h 6.0mph /  9.7km/h 79% 0.00in /  0mm
11:35 84.6 °F /  29.2 °C 77.0 °F /  25 °C 29.98in /  1015.1hPa WNW 2.0mph /  3.2km/h 7.0mph /  11.3km/h 78% 0.00in /  0mm
11:40 85.2 °F /  29.6 °C 77.2 °F /  25.1 °C 29.98in /  1015.1hPa SSW 5.0mph /  8km/h 6.0mph /  9.7km/h 77% 0.00in /  0mm
11:45 85.3 °F /  29.6 °C 76.5 °F /  24.7 °C 29.98in /  1015.1hPa West 5.0mph /  8km/h 7.0mph /  11.3km/h 75% 0.00in /  0mm
11:50 84.9 °F /  29.4 °C 76.5 °F /  24.7 °C 29.98in /  1015.1hPa SW 3.0mph /  4.8km/h 5.0mph /  8km/h 76% 0.00in /  0mm
11:55 85.4 °F /  29.7 °C 77.4 °F /  25.2 °C 29.98in /  1015.1hPa WSW 5.0mph /  8km/h 8.0mph /  12.9km/h 77% 0.00in /  0mm
12:00 85.8 °F /  29.9 °C 77.4 °F /  25.2 °C 29.98in /  1015.1hPa SW 7.0mph /  11.3km/h 9.0mph /  14.5km/h 76% 0.00in /  0mm
12:05 86.1 °F /  30.1 °C 76.4 °F /  24.7 °C 29.98in /  1015.1hPa WSW 5.0mph /  8km/h 8.0mph /  12.9km/h 73% 0.00in /  0mm
12:10 85.9 °F /  29.9 °C 76.7 °F /  24.8 °C 29.98in /  1015.1hPa SW 2.0mph /  3.2km/h 10.0mph /  16.1km/h 74% 0.00in /  0mm
12:16 86.5 °F /  30.3 °C 78.0 °F /  25.6 °C 29.98in /  1015.1hPa SW 6.0mph /  9.7km/h 7.0mph /  11.3km/h 76% 0.00in /  0mm
12:21 86.3 °F /  30.2 °C 76.6 °F /  24.8 °C 29.98in /  1015.1hPa West 5.0mph /  8km/h 8.0mph /  12.9km/h 73% 0.00in /  0mm
12:26 86.1 °F /  30.1 °C 76.8 °F /  24.9 °C 29.98in /  1015.1hPa West 4.0mph /  6.4km/h 9.0mph /  14.5km/h 74% 0.00in /  0mm
12:31 86.2 °F /  30.1 °C 76.5 °F /  24.7 °C 29.98in /  1015.1hPa SSW 4.0mph /  6.4km/h 7.0mph /  11.3km/h 73% 0.00in /  0mm
12:36 85.8 °F /  29.9 °C 75.7 °F /  24.3 °C 29.98in /  1015.1hPa West 6.0mph /  9.7km/h 12.0mph /  19.3km/h 72% 0.00in /  0mm
12:41 85.7 °F /  29.8 °C 76.1 °F /  24.5 °C 29.97in /  1014.8hPa WSW 2.0mph /  3.2km/h 6.0mph /  9.7km/h 73% 0.00in /  0mm
12:46 85.8 °F /  29.9 °C 77.0 °F /  25 °C 29.97in /  1014.8hPa West 3.0mph /  4.8km/h 5.0mph /  8km/h 75% 0.00in /  0mm
12:51 86.4 °F /  30.2 °C 77.5 °F /  25.3 °C 29.97in /  1014.8hPa SW 2.0mph /  3.2km/h 7.0mph /  11.3km/h 75% 0.00in /  0mm
12:56 86.4 °F /  30.2 °C 76.7 °F /  24.8 °C 29.97in /  1014.8hPa NW 5.0mph /  8km/h 7.0mph /  11.3km/h 73% 0.00in /  0mm
13:01 85.6 °F /  29.8 °C 76.0 °F /  24.4 °C 29.97in /  1014.8hPa WNW 3.0mph /  4.8km/h 6.0mph /  9.7km/h 73% 0.00in /  0mm
13:06 86.0 °F /  30 °C 76.3 °F /  24.6 °C 29.97in /  1014.8hPa WSW 6.0mph /  9.7km/h 7.0mph /  11.3km/h 73% 0.00in /  0mm
13:11 87.0 °F /  30.6 °C 76.5 °F /  24.7 °C 29.97in /  1014.8hPa SSW 1.0mph /  1.6km/h 5.0mph /  8km/h 71% 0.00in /  0mm
13:16 87.2 °F /  30.7 °C 76.2 °F /  24.6 °C 29.97in /  1014.8hPa WNW 5.0mph /  8km/h 8.0mph /  12.9km/h 70% 0.00in /  0mm
13:21 86.9 °F /  30.5 °C 76.8 °F /  24.9 °C 29.97in /  1014.8hPa WSW 3.0mph /  4.8km/h 8.0mph /  12.9km/h 72% 0.00in /  0mm
13:26 87.2 °F /  30.7 °C 75.8 °F /  24.3 °C 29.97in /  1014.8hPa NNW 2.0mph /  3.2km/h 6.0mph /  9.7km/h 69% 0.00in /  0mm
13:31 87.2 °F /  30.7 °C 75.4 °F /  24.1 °C 29.97in /  1014.8hPa WNW 5.0mph /  8km/h 9.0mph /  14.5km/h 68% 0.00in /  0mm
13:36 88.0 °F /  31.1 °C 76.6 °F /  24.8 °C 29.96in /  1014.4hPa WNW 4.0mph /  6.4km/h 5.0mph /  8km/h 69% 0.00in /  0mm
13:41 88.6 °F /  31.4 °C 75.3 °F /  24.1 °C 29.96in /  1014.4hPa WSW 11.0mph /  17.7km/h 13.0mph /  20.9km/h 65% 0.00in /  0mm
13:47 88.0 °F /  31.1 °C 74.8 °F /  23.8 °C 29.96in /  1014.4hPa West 9.0mph /  14.5km/h 11.0mph /  17.7km/h 65% 0.00in /  0mm
13:52 87.3 °F /  30.7 °C 75.9 °F /  24.4 °C 29.95in /  1014.1hPa WNW 3.0mph /  4.8km/h 7.0mph /  11.3km/h 69% 0.00in /  0mm
13:57 87.1 °F /  30.6 °C 75.3 °F /  24.1 °C 29.95in /  1014.1hPa WNW 6.0mph /  9.7km/h 6.0mph /  9.7km/h 68% 0.00in /  0mm
14:02 87.4 °F /  30.8 °C 76.4 °F /  24.7 °C 29.95in /  1014.1hPa NW 4.0mph /  6.4km/h 5.0mph /  8km/h 70% 0.00in /  0mm
14:07 87.7 °F /  30.9 °C 75.8 °F /  24.3 °C 29.95in /  1014.1hPa West 1.0mph /  1.6km/h 8.0mph /  12.9km/h 68% 0.00in /  0mm
14:12 88.2 °F /  31.2 °C 77.2 °F /  25.1 °C 29.94in /  1013.8hPa WNW 3.0mph /  4.8km/h 5.0mph /  8km/h 70% 0.00in /  0mm
14:17 88.2 °F /  31.2 °C 75.0 °F /  23.9 °C 29.94in /  1013.8hPa WSW 3.0mph /  4.8km/h 7.0mph /  11.3km/h 65% 0.00in /  0mm
14:22 88.3 °F /  31.3 °C 75.5 °F /  24.2 °C 29.93in /  1013.4hPa WNW 5.0mph /  8km/h 7.0mph /  11.3km/h 66% 0.00in /  0mm
14:27 88.5 °F /  31.4 °C 74.8 °F /  23.8 °C 29.93in /  1013.4hPa WNW 4.0mph /  6.4km/h 8.0mph /  12.9km/h 64% 0.00in /  0mm
14:32 88.6 °F /  31.4 °C 75.3 °F /  24.1 °C 29.93in /  1013.4hPa SW 4.0mph /  6.4km/h 5.0mph /  8km/h 65% 0.00in /  0mm
14:37 89.0 °F /  31.7 °C 75.7 °F /  24.3 °C 29.92in /  1013.1hPa SW 2.0mph /  3.2km/h 6.0mph /  9.7km/h 65% 0.00in /  0mm
14:42 89.2 °F /  31.8 °C 75.0 °F /  23.9 °C 29.92in /  1013.1hPa SSW 1.0mph /  1.6km/h 6.0mph /  9.7km/h 63% 0.00in /  0mm
14:47 89.9 °F /  32.2 °C 75.1 °F /  23.9 °C 29.91in /  1012.8hPa SSE 4.0mph /  6.4km/h 8.0mph /  12.9km/h 62% 0.00in /  0mm
14:52 90.0 °F /  32.2 °C 74.3 °F /  23.5 °C 29.91in /  1012.8hPa SW 1.0mph /  1.6km/h 8.0mph /  12.9km/h 60% 0.00in /  0mm
14:57 90.1 °F /  32.3 °C 74.8 °F /  23.8 °C 29.91in /  1012.8hPa SW 6.0mph /  9.7km/h 8.0mph /  12.9km/h 61% 0.00in /  0mm
15:02 89.7 °F /  32.1 °C 73.5 °F /  23.1 °C 29.91in /  1012.8hPa Calm   8.0mph /  12.9km/h 59% 0.00in /  0mm
15:07 90.1 °F /  32.3 °C 74.3 °F /  23.5 °C 29.91in /  1012.8hPa SW 6.0mph /  9.7km/h 9.0mph /  14.5km/h 60% 0.00in /  0mm
15:12 90.4 °F /  32.4 °C 74.1 °F /  23.4 °C 29.91in /  1012.8hPa SW 3.0mph /  4.8km/h 9.0mph /  14.5km/h 59% 0.00in /  0mm
15:17 90.5 °F /  32.5 °C 74.2 °F /  23.4 °C 29.91in /  1012.8hPa West 3.0mph /  4.8km/h 9.0mph /  14.5km/h 59% 0.00in /  0mm
15:22 91.1 °F /  32.8 °C 77.2 °F /  25.1 °C 29.91in /  1012.8hPa WSW 3.0mph /  4.8km/h 3.0mph /  4.8km/h 64% 0.00in /  0mm
15:27 90.9 °F /  32.7 °C 75.1 °F /  23.9 °C 29.91in /  1012.8hPa South 4.0mph /  6.4km/h 7.0mph /  11.3km/h 60% 0.00in /  0mm
15:32 90.0 °F /  32.2 °C 74.3 °F /  23.5 °C 29.91in /  1012.8hPa SSW 5.0mph /  8km/h 12.0mph /  19.3km/h 60% 0.00in /  0mm
15:37 90.4 °F /  32.4 °C 75.6 °F /  24.2 °C 29.91in /  1012.8hPa SSW 3.0mph /  4.8km/h 8.0mph /  12.9km/h 62% 0.00in /  0mm
15:42 90.6 °F /  32.6 °C 75.3 °F /  24.1 °C 29.91in /  1012.8hPa WSW 4.0mph /  6.4km/h 9.0mph /  14.5km/h 61% 0.00in /  0mm
15:47 90.9 °F /  32.7 °C 76.6 °F /  24.8 °C 29.90in /  1012.4hPa SW 5.0mph /  8km/h 5.0mph /  8km/h 63% 0.00in /  0mm
15:52 90.7 °F /  32.6 °C 75.4 °F /  24.1 °C 29.90in /  1012.4hPa West 4.0mph /  6.4km/h 9.0mph /  14.5km/h 61% 0.00in /  0mm
15:57 90.2 °F /  32.3 °C 74.9 °F /  23.8 °C 29.90in /  1012.4hPa SSW 6.0mph /  9.7km/h 6.0mph /  9.7km/h 61% 0.00in /  0mm
16:02 90.2 °F /  32.3 °C 75.4 °F /  24.1 °C 29.90in /  1012.4hPa NNE 1.0mph /  1.6km/h 4.0mph /  6.4km/h 62% 0.00in /  0mm
16:07 91.1 °F /  32.8 °C 76.3 °F /  24.6 °C 29.90in /  1012.4hPa SSE 3.0mph /  4.8km/h 3.0mph /  4.8km/h 62% 0.00in /  0mm
16:13 91.5 °F /  33.1 °C 75.7 °F /  24.3 °C 29.90in /  1012.4hPa SW 6.0mph /  9.7km/h 7.0mph /  11.3km/h 60% 0.00in /  0mm
16:18 91.2 °F /  32.9 °C 75.9 °F /  24.4 °C 29.90in /  1012.4hPa SE 6.0mph /  9.7km/h 7.0mph /  11.3km/h 61% 0.00in /  0mm
16:23 90.9 °F /  32.7 °C 76.6 °F /  24.8 °C 29.91in /  1012.8hPa SSE 3.0mph /  4.8km/h 5.0mph /  8km/h 63% 0.00in /  0mm
16:28 90.7 °F /  32.6 °C 74.9 °F /  23.8 °C 29.91in /  1012.8hPa SSE 3.0mph /  4.8km/h 7.0mph /  11.3km/h 60% 0.00in /  0mm
16:33 90.5 °F /  32.5 °C 75.2 °F /  24 °C 29.90in /  1012.4hPa SW 3.0mph /  4.8km/h 6.0mph /  9.7km/h 61% 0.00in /  0mm
16:38 90.4 °F /  32.4 °C 75.1 °F /  23.9 °C 29.90in /  1012.4hPa SW 4.0mph /  6.4km/h 6.0mph /  9.7km/h 61% 0.00in /  0mm
16:43 90.2 °F /  32.3 °C 74.9 °F /  23.8 °C 29.89in /  1012.1hPa SSW 3.0mph /  4.8km/h 7.0mph /  11.3km/h 61% 0.00in /  0mm
16:48 90.2 °F /  32.3 °C 74.4 °F /  23.6 °C 29.88in /  1011.7hPa WSW 3.0mph /  4.8km/h 5.0mph /  8km/h 60% 0.00in /  0mm
16:53 89.7 °F /  32.1 °C 75.0 °F /  23.9 °C 29.88in /  1011.7hPa SW 1.0mph /  1.6km/h 4.0mph /  6.4km/h 62% 0.00in /  0mm
16:58 89.4 °F /  31.9 °C 74.7 °F /  23.7 °C 29.88in /  1011.7hPa SSW 2.0mph /  3.2km/h 5.0mph /  8km/h 62% 0.00in /  0mm
17:03 89.2 °F /  31.8 °C 74.5 °F /  23.6 °C 29.89in /  1012.1hPa SSE 2.0mph /  3.2km/h 3.0mph /  4.8km/h 62% 0.00in /  0mm
17:08 89.1 °F /  31.7 °C 74.4 °F /  23.6 °C 29.89in /  1012.1hPa South 4.0mph /  6.4km/h 4.0mph /  6.4km/h 62% 0.00in /  0mm
17:13 88.8 °F /  31.6 °C 73.6 °F /  23.1 °C 29.90in /  1012.4hPa SSW 3.0mph /  4.8km/h 5.0mph /  8km/h 61% 0.00in /  0mm
17:18 88.4 °F /  31.3 °C 74.7 °F /  23.7 °C 29.90in /  1012.4hPa SSE 5.0mph /  8km/h 6.0mph /  9.7km/h 64% 0.00in /  0mm
17:23 87.8 °F /  31 °C 74.1 °F /  23.4 °C 29.90in /  1012.4hPa SW 6.0mph /  9.7km/h 6.0mph /  9.7km/h 64% 0.00in /  0mm
18:46 71.7 °F /  22.1 °C 68.9 °F /  20.5 °C 29.91in /  1012.8hPa SSE 4.0mph /  6.4km/h 5.0mph /  8km/h 91% 0.00in /  0mm
18:51 71.5 °F /  21.9 °C 69.1 °F /  20.6 °C 29.92in /  1013.1hPa SSE 2.0mph /  3.2km/h 5.0mph /  8km/h 92% 0.00in /  0mm
18:57 71.4 °F /  21.9 °C 69.0 °F /  20.6 °C 29.92in /  1013.1hPa WSW 1.0mph /  1.6km/h 1.0mph /  1.6km/h 92% 0.00in /  0mm
19:02 71.4 °F /  21.9 °C 69.0 °F /  20.6 °C 29.92in /  1013.1hPa Calm   1.0mph /  1.6km/h 92% 0.00in /  0mm
19:07 71.5 °F /  21.9 °C 69.1 °F /  20.6 °C 29.93in /  1013.4hPa SE 1.0mph /  1.6km/h 2.0mph /  3.2km/h 92% 0.00in /  0mm
19:12 71.5 °F /  21.9 °C 69.1 °F /  20.6 °C 29.93in /  1013.4hPa Calm     92% 0.00in /  0mm
19:17 71.5 °F /  21.9 °C 69.1 °F /  20.6 °C 29.92in /  1013.1hPa East 1.0mph /  1.6km/h 3.0mph /  4.8km/h 92% 0.00in /  0mm
19:22 71.5 °F /  21.9 °C 69.1 °F /  20.6 °C 29.92in /  1013.1hPa NNW 2.0mph /  3.2km/h 3.0mph /  4.8km/h 92% 0.00in /  0mm
19:27 71.4 °F /  21.9 °C 69.0 °F /  20.6 °C 29.93in /  1013.4hPa Calm   5.0mph /  8km/h 92% 0.00in /  0mm
19:32 71.3 °F /  21.8 °C 68.9 °F /  20.5 °C 29.92in /  1013.1hPa WNW 1.0mph /  1.6km/h 1.0mph /  1.6km/h 92% 0.00in /  0mm
19:37 71.3 °F /  21.8 °C 68.9 °F /  20.5 °C 29.92in /  1013.1hPa Calm   1.0mph /  1.6km/h 92% 0.00in /  0mm
19:42 71.3 °F /  21.8 °C 68.9 °F /  20.5 °C 29.93in /  1013.4hPa WNW 2.0mph /  3.2km/h 2.0mph /  3.2km/h 92% 0.00in /  0mm
19:47 71.3 °F /  21.8 °C 69.2 °F /  20.7 °C 29.92in /  1013.1hPa Calm   1.0mph /  1.6km/h 93% 0.00in /  0mm
19:52 71.4 °F /  21.9 °C 69.3 °F /  20.7 °C 29.92in /  1013.1hPa WSW 1.0mph /  1.6km/h 3.0mph /  4.8km/h 93% 0.00in /  0mm
19:57 71.6 °F /  22 °C 69.5 °F /  20.8 °C 29.91in /  1012.8hPa WSW 1.0mph /  1.6km/h 2.0mph /  3.2km/h 93% 0.00in /  0mm
20:02 71.7 °F /  22.1 °C 69.6 °F /  20.9 °C 29.91in /  1012.8hPa West 1.0mph /  1.6km/h 3.0mph /  4.8km/h 93% 0.00in /  0mm
20:07 71.7 °F /  22.1 °C 69.6 °F /  20.9 °C 29.91in /  1012.8hPa SSW 2.0mph /  3.2km/h 2.0mph /  3.2km/h 93% 0.00in /  0mm
20:12 71.8 °F /  22.1 °C 69.7 °F /  20.9 °C 29.90in /  1012.4hPa Calm   2.0mph /  3.2km/h 93% 0.00in /  0mm
20:17 71.8 °F /  22.1 °C 69.7 °F /  20.9 °C 29.90in /  1012.4hPa Calm   1.0mph /  1.6km/h 93% 0.00in /  0mm
20:22 71.9 °F /  22.2 °C 69.8 °F /  21 °C 29.92in /  1013.1hPa Calm   1.0mph /  1.6km/h 93% 0.00in /  0mm
20:27 71.9 °F /  22.2 °C 69.4 °F /  20.8 °C 29.93in /  1013.4hPa Calm   1.0mph /  1.6km/h 92% 0.00in /  0mm
20:32 72.0 °F /  22.2 °C 69.6 °F /  20.9 °C 29.93in /  1013.4hPa West 2.0mph /  3.2km/h 2.0mph /  3.2km/h 92% 0.00in /  0mm
20:37 72.0 °F /  22.2 °C 69.6 °F /  20.9 °C 29.94in /  1013.8hPa NW 2.0mph /  3.2km/h 5.0mph /  8km/h 92% 0.00in /  0mm
20:42 72.0 °F /  22.2 °C 69.6 °F /  20.9 °C 29.94in /  1013.8hPa WSW 6.0mph /  9.7km/h 6.0mph /  9.7km/h 92% 0.00in /  0mm
20:47 72.0 °F /  22.2 °C 69.6 °F /  20.9 °C 29.93in /  1013.4hPa WNW 3.0mph /  4.8km/h 4.0mph /  6.4km/h 92% 0.00in /  0mm
20:52 72.1 °F /  22.3 °C 69.7 °F /  20.9 °C 29.94in /  1013.8hPa SW 4.0mph /  6.4km/h 4.0mph /  6.4km/h 92% 0.00in /  0mm
20:57 72.2 °F /  22.3 °C 69.8 °F /  21 °C 29.94in /  1013.8hPa WSW 3.0mph /  4.8km/h 5.0mph /  8km/h 92% 0.00in /  0mm
21:03 72.3 °F /  22.4 °C 69.8 °F /  21 °C 29.94in /  1013.8hPa WNW 2.0mph /  3.2km/h 3.0mph /  4.8km/h 92% 0.00in /  0mm
21:08 72.3 °F /  22.4 °C 69.8 °F /  21 °C 29.95in /  1014.1hPa WNW 2.0mph /  3.2km/h 4.0mph /  6.4km/h 92% 0.00in /  0mm
21:13 72.2 °F /  22.3 °C 69.8 °F /  21 °C 29.96in /  1014.4hPa NW 1.0mph /  1.6km/h 2.0mph /  3.2km/h 92% 0.00in /  0mm
21:18 72.2 °F /  22.3 °C 69.8 °F /  21 °C 29.96in /  1014.4hPa NW 3.0mph /  4.8km/h 3.0mph /  4.8km/h 92% 0.00in /  0mm
21:23 72.2 °F /  22.3 °C 69.8 °F /  21 °C 29.96in /  1014.4hPa WNW 3.0mph /  4.8km/h 5.0mph /  8km/h 92% 0.00in /  0mm
21:28 72.3 °F /  22.4 °C 69.8 °F /  21 °C 29.95in /  1014.1hPa WSW 1.0mph /  1.6km/h 3.0mph /  4.8km/h 92% 0.00in /  0mm
21:33 72.4 °F /  22.4 °C 69.9 °F /  21.1 °C 29.94in /  1013.8hPa SSW 2.0mph /  3.2km/h 2.0mph /  3.2km/h 92% 0.00in /  0mm
21:38 72.5 °F /  22.5 °C 70.1 °F /  21.2 °C 29.94in /  1013.8hPa SW 2.0mph /  3.2km/h 3.0mph /  4.8km/h 92% 0.00in /  0mm
21:43 72.5 °F /  22.5 °C 70.1 °F /  21.2 °C 29.94in /  1013.8hPa SSW 2.0mph /  3.2km/h 3.0mph /  4.8km/h 92% 0.00in /  0mm
21:48 72.4 °F /  22.4 °C 69.9 °F /  21.1 °C 29.94in /  1013.8hPa SSW 4.0mph /  6.4km/h 4.0mph /  6.4km/h 92% 0.00in /  0mm
21:53 72.4 °F /  22.4 °C 69.9 °F /  21.1 °C 29.94in /  1013.8hPa South 4.0mph /  6.4km/h 6.0mph /  9.7km/h 92% 0.00in /  0mm
21:58 72.3 °F /  22.4 °C 69.8 °F /  21 °C 29.94in /  1013.8hPa South 6.0mph /  9.7km/h 6.0mph /  9.7km/h 92% 0.00in /  0mm
22:03 72.3 °F /  22.4 °C 69.8 °F /  21 °C 29.95in /  1014.1hPa SE 5.0mph /  8km/h 5.0mph /  8km/h 92% 0.00in /  0mm
22:08 72.3 °F /  22.4 °C 69.8 °F /  21 °C 29.95in /  1014.1hPa SE 1.0mph /  1.6km/h 7.0mph /  11.3km/h 92% 0.00in /  0mm
22:13 72.3 °F /  22.4 °C 69.8 °F /  21 °C 29.96in /  1014.4hPa West 1.0mph /  1.6km/h 2.0mph /  3.2km/h 92% 0.00in /  0mm
22:18 72.2 °F /  22.3 °C 69.8 °F /  21 °C 29.97in /  1014.8hPa Calm   1.0mph /  1.6km/h 92% 0.00in /  0mm
22:23 72.2 °F /  22.3 °C 69.8 °F /  21 °C 29.98in /  1015.1hPa Calm   2.0mph /  3.2km/h 92% 0.00in /  0mm
22:28 72.2 °F /  22.3 °C 69.8 °F /  21 °C 29.99in /  1015.5hPa Calm     92% 0.00in /  0mm
22:33 72.2 °F /  22.3 °C 69.8 °F /  21 °C 29.99in /  1015.5hPa South 2.0mph /  3.2km/h 2.0mph /  3.2km/h 92% 0.00in /  0mm
22:38 72.3 °F /  22.4 °C 69.8 °F /  21 °C 29.99in /  1015.5hPa SSW 2.0mph /  3.2km/h 3.0mph /  4.8km/h 92% 0.00in /  0mm
22:43 72.3 °F /  22.4 °C 69.8 °F /  21 °C 29.99in /  1015.5hPa SSE 3.0mph /  4.8km/h 4.0mph /  6.4km/h 92% 0.00in /  0mm
22:49 72.2 °F /  22.3 °C 69.8 °F /  21 °C 29.99in /  1015.5hPa SW 3.0mph /  4.8km/h 3.0mph /  4.8km/h 92% 0.00in /  0mm
22:54 72.3 °F /  22.4 °C 69.8 °F /  21 °C 29.99in /  1015.5hPa SSW 1.0mph /  1.6km/h 3.0mph /  4.8km/h 92% 0.00in /  0mm
22:59 72.2 °F /  22.3 °C 69.8 °F /  21 °C 29.99in /  1015.5hPa SSE 4.0mph /  6.4km/h 5.0mph /  8km/h 92% 0.00in /  0mm
23:04 72.2 °F /  22.3 °C 69.8 °F /  21 °C 29.98in /  1015.1hPa South 2.0mph /  3.2km/h 5.0mph /  8km/h 92% 0.00in /  0mm
23:09 72.1 °F /  22.3 °C 69.7 °F /  20.9 °C 29.98in /  1015.1hPa SSE 4.0mph /  6.4km/h 5.0mph /  8km/h 92% 0.00in /  0mm
23:14 72.1 °F /  22.3 °C 69.7 °F /  20.9 °C 29.97in /  1014.8hPa South 2.0mph /  3.2km/h 4.0mph /  6.4km/h 92% 0.00in /  0mm
23:19 72.1 °F /  22.3 °C 69.7 °F /  20.9 °C 29.97in /  1014.8hPa SSE 3.0mph /  4.8km/h 5.0mph /  8km/h 92% 0.00in /  0mm
23:24 72.1 °F /  22.3 °C 69.7 °F /  20.9 °C 29.97in /  1014.8hPa SE 3.0mph /  4.8km/h 4.0mph /  6.4km/h 92% 0.00in /  0mm
23:29 72.0 °F /  22.2 °C 69.6 °F /  20.9 °C 29.96in /  1014.4hPa SSW 4.0mph /  6.4km/h 4.0mph /  6.4km/h 92% 0.00in /  0mm
23:34 72.0 °F /  22.2 °C 69.6 °F /  20.9 °C 29.96in /  1014.4hPa Calm   3.0mph /  4.8km/h 92% 0.00in /  0mm
23:39 72.0 °F /  22.2 °C 69.6 °F /  20.9 °C 29.96in /  1014.4hPa SSE 2.0mph /  3.2km/h 3.0mph /  4.8km/h 92% 0.00in /  0mm
23:44 72.0 °F /  22.2 °C 69.6 °F /  20.9 °C 29.96in /  1014.4hPa Calm   2.0mph /  3.2km/h 92% 0.00in /  0mm
23:49 71.9 °F /  22.2 °C 69.4 °F /  20.8 °C 29.95in /  1014.1hPa WSW 1.0mph /  1.6km/h 1.0mph /  1.6km/h 92% 0.00in /  0mm
23:54 71.9 °F /  22.2 °C 69.4 °F /  20.8 °C 29.95in /  1014.1hPa West 1.0mph /  1.6km/h 3.0mph /  4.8km/h 92% 0.00in /  0mm
23:59 72.0 °F /  22.2 °C 69.6 °F /  20.9 °C 29.95in /  1014.1hPa West 1.0mph /  1.6km/h 3.0mph /  4.8km/h 92% 0.00in /  0mm
Compliments of Weather Underground